Terminal Aerodrome Forecast
Issued by NWS Cleveland, OH

Home | Current Version | Previous Version | Graphics & Text | Print | Product List | Glossary On
Versions: 1 2 3 4 5 6 7 8 9 10 11 12 13 14 15 16 17 18 19 20 21
000
FTUS41 KCLE 010201 AAA
TAFYNG
TAF AMD
KYNG 010201Z 0102/0124 28014G24KT 6SM -SHRA BKN007 OVC025
      TEMPO 0102/0104 SCT007 BKN015
     FM010400 27014G22KT P6SM SCT025 BKN100
     FM010600 27012G18KT P6SM BKN015 OVC020=

USA.gov is the U.S. government's official web portal to all federal, state and local government web resources and services.